Hauptseite
METAR-TAF:

METAR-TAF

Flughäfen :

Flughafen Skopje

Skopje, Mazedonien

Breite: 41-58N, Länge: 021-39E, Höhe: 238 m

Beobachtung

Neuester Wetterbericht von vor 51 Minuten, um 03:00 UTC
Wind 4 kt aus Nord
Temperatur 11°C
Luftfeuchtigkeit 87%
Luftdruck 1020 hPa
Sichtweite 10 km oder mehr
Geschlossene Wolkendecke in der Höhe von 4600 ft

METAR: LWSK 230300Z 36004KT 9999 OVC046 11/09 Q1020 NOSIG

Zeit: 05:51 (03:51 UTC)

Prognose

Neuester Wetterbericht von vor 1 Stunde und 21 Minuten, um 02:30 UTC
Gültige Prognose vom 23 um 03 UTC bis 24 um 03 UTC
Wind 10 kt aus Nord/Nordost
Sichtweite 10 km oder mehr
Geschlossene Wolkendecke in der Höhe von 5000 ft
Übergehend zu
vom 23 um 10 UTC bis 23 um 12 UTC
Aufgelockert bewölkt in der Höhe von 4000 ft
Durchbrochene Bewölkung in der Höhe von 9000 ft

TAF: LWSK 230230Z 2303/2403 02010KT 9999 OVC050 BECMG 2310/2312 SCT040 BKN090

Wetterbeobachtungen und Prognosen von mehr als 4000 Flughäfen (METAR und TAF Bericht).

Die verfügbaren Stationen werden durch gelbe und rote Markierungen auf der Karte dargestellt.

Führen Sie die Maus auf sie, um den Namen der Station zu sehen.

Darauf klicken, um die Beobachtung von Wetterbeobachtungen und Prognosen zu sehen.

Um die Karte zu ändern : klicken Sie auf den grünen Tasten mit einem schwarzen Kreuz Zum Vergrößern, auf den grünen Button mit einem Gedankenstrich zu verkleinern, oder auf die grünen Pfeile für benachbarte Karten.


METAR-TAF: